Time;durP1;ratioP1;P1;durP2;ratioP2;P2;SDS_P1;SDS_P2;PMS_P1;PMS_P2;Temp;Humidity;BMP_temperature;BMP_pressure;BME280_temperature;BME280_humidity;BME280_pressure;Samples;Min_cycle;Max_cycle;Signal;HPM_P1;HPM_P2
2022/07/13 00:01:33;;;;;;;8.80;2.50;;;;;;;-143.51;100.00;62207.84;5068303;28;20471;-84
2022/07/13 00:03:58;;;;;;;9.52;2.22;;;;;;;-143.51;100.00;62207.84;5065297;28;20534;-85
2022/07/13 00:06:24;;;;;;;8.55;2.60;;;;;;;-143.51;100.00;62207.84;5068600;28;20101;-85
2022/07/13 00:08:49;;;;;;;9.98;2.38;;;;;;;-143.51;100.00;62207.84;5068274;28;20115;-84
2022/07/13 00:11:14;;;;;;;5.80;2.40;;;;;;;-143.51;100.00;62207.84;5084221;28;20515;-84
2022/07/13 00:13:40;;;;;;;6.60;2.45;;;;;;;-143.51;100.00;62207.84;5068159;28;20039;-84
2022/07/13 00:16:06;;;;;;;6.55;2.58;;;;;;;-143.51;100.00;62207.84;5069522;28;20032;-84
2022/07/13 00:18:31;;;;;;;9.10;2.20;;;;;;;;;;5064104;28;20048;-84
2022/07/13 00:20:57;;;;;;;5.25;2.30;;;;;;;16.53;nan;95607.66;5066804;28;20044;-84
2022/07/13 00:23:23;;;;;;;5.97;2.15;;;;;;;16.49;nan;95654.03;5063301;28;20490;-84
2022/07/13 00:25:48;;;;;;;7.95;3.30;;;;;;;15.32;nan;95489.66;5062376;28;20112;-84
2022/07/13 00:28:14;;;;;;;19.48;3.03;;;;;;;16.84;nan;95714.16;5066063;28;20048;-84
2022/07/13 00:30:39;;;;;;;10.98;3.47;;;;;;;16.10;nan;95582.28;5065456;28;20039;-84
2022/07/13 00:33:05;;;;;;;8.10;2.50;;;;;;;16.54;nan;95652.06;5065327;28;20032;-84
2022/07/13 00:35:31;;;;;;;7.55;2.53;;;;;;;16.35;nan;95642.56;5065659;28;20090;-84
2022/07/13 00:37:56;;;;;;;8.68;3.10;;;;;;;16.25;nan;95622.13;5061417;28;20097;-84
2022/07/13 00:40:22;;;;;;;8.23;3.10;;;;;;;16.99;nan;95716.53;5061453;28;20028;-84
2022/07/13 00:42:48;;;;;;;9.90;3.15;;;;;;;17.08;nan;95712.03;5061500;28;20537;-84
2022/07/13 00:45:13;;;;;;;12.63;3.42;;;;;;;16.61;nan;95630.28;5084704;28;20024;-84
2022/07/13 00:47:41;;;;;;;7.38;3.13;;;;;;;16.89;nan;95679.22;5063707;28;20035;-84
2022/07/13 00:50:07;;;;;;;5.45;2.88;;;;;;;16.57;nan;95656.81;5063906;28;20024;-84
2022/07/13 00:52:35;;;;;;;8.52;2.88;;;;;;;16.94;nan;95716.59;5064877;28;20036;-84
2022/07/13 00:55:02;;;;;;;5.85;2.72;;;;;;;16.14;nan;95604.69;5060033;28;20900;-84
2022/07/13 00:57:28;;;;;;;7.78;2.83;;;;;;;16.58;nan;95685.19;5058650;28;20032;-84
2022/07/13 00:59:55;;;;;;;9.45;2.85;;;;;;;15.90;nan;95553.28;5087863;28;20105;-84
2022/07/13 01:02:20;;;;;;;8.30;2.55;;;;;;;16.38;nan;95632.06;5046437;28;20064;-84
2022/07/13 01:04:46;;;;;;;10.00;3.00;;;;;;;16.06;nan;95587.47;5055324;28;20114;-84
2022/07/13 01:07:12;;;;;;;13.75;3.58;;;;;;;16.93;nan;95725.75;5064259;28;20044;-84
2022/07/13 01:09:38;;;;;;;6.22;2.72;;;;;;;16.99;nan;95727.25;5051154;28;20036;-84
2022/07/13 01:12:05;;;;;;;7.75;2.58;;;;;;;16.65;nan;95659.91;5060384;28;20047;-84
2022/07/13 01:14:31;;;;;;;8.82;2.55;;;;;;;16.16;nan;95631.97;5049491;28;20033;-84
2022/07/13 01:16:57;;;;;;;5.35;2.40;;;;;;;16.29;nan;95657.94;5045520;28;20035;-84
2022/07/13 01:19:23;;;;;;;66.30;21.80;;;;;;;16.21;nan;95645.25;5045578;28;20550;-84
2022/07/13 01:21:55;;;;;;;28.00;9.57;;;;;;;15.79;nan;95622.41;5080012;28;20040;-84
2022/07/13 01:24:21;;;;;;;48.42;15.20;;;;;;;16.55;nan;95696.47;5044620;28;20097;-84
2022/07/13 01:26:49;;;;;;;27.00;8.82;;;;;;;16.58;nan;95673.69;5046384;28;20028;-84
2022/07/13 01:29:14;;;;;;;19.20;6.57;;;;;;;16.74;nan;95714.34;5068457;28;20032;-84
2022/07/13 01:31:40;;;;;;;23.27;7.22;;;;;;;15.67;nan;95557.72;5062907;28;20031;-84
2022/07/13 01:34:08;;;;;;;18.77;6.97;;;;;;;16.11;nan;95619.47;5063678;28;20541;-85
2022/07/13 01:36:37;;;;;;;14.90;6.40;;;;;;;16.51;nan;95697.38;5073466;28;20407;-84
2022/07/13 01:39:05;;;;;;;18.85;6.25;;;;;;;16.09;nan;95634.25;5072548;28;20118;-84
2022/07/13 01:41:30;;;;;;;13.85;5.15;;;;;;;16.50;nan;95693.13;5083097;28;20772;-84
2022/07/13 01:43:58;;;;;;;13.90;5.57;;;;;;;15.42;nan;95583.78;5082034;28;20046;-84
2022/07/13 01:46:28;;;;;;;19.27;5.15;;;;;;;16.48;nan;95712.16;5064084;28;20407;-84
2022/07/13 01:48:57;;;;;;;15.23;4.80;;;;;;;15.97;nan;95648.09;5048537;28;20499;-84
2022/07/13 01:51:23;;;;;;;16.85;5.82;;;;;;;15.68;nan;95586.84;5061449;28;20040;-84
2022/07/13 01:53:49;;;;;;;14.75;5.00;;;;;;;16.47;nan;95709.78;5063851;28;20047;-84
2022/07/13 01:56:14;;;;;;;17.30;5.72;;;;;;;15.60;nan;95624.94;5047508;28;20036;-84
2022/07/13 01:58:40;;;;;;;15.25;5.07;;;;;;;15.73;nan;95634.88;5079234;28;20051;-84
2022/07/13 02:01:05;;;;;;;15.27;5.63;;;;;;;15.23;nan;95575.03;5048257;28;20139;-84
2022/07/13 02:03:32;;;;;;;15.23;5.43;;;;;;;15.80;nan;95706.69;5063548;28;20036;-84
2022/07/13 02:05:58;;;;;;;13.32;5.10;;;;;;;15.35;nan;95615.44;5063788;28;20043;-84
2022/07/13 02:08:25;;;;;;;20.48;6.20;;;;;;;15.08;nan;95559.28;5080990;28;20043;-84
2022/07/13 02:10:50;;;;;;;18.40;5.13;;;;;;;15.87;nan;95650.94;5054643;28;20028;-84
2022/07/13 02:13:16;;;;;;;15.77;6.05;;;;;;;15.89;nan;95672.06;5057711;28;20116;-84
2022/07/13 02:15:43;;;;;;;20.85;5.72;;;;;;;16.11;nan;95725.69;5064126;28;20084;-84
2022/07/13 02:18:08;;;;;;;20.10;6.20;;;;;;;15.88;nan;95687.31;5082466;28;20042;-84
2022/07/13 02:20:35;;;;;;;18.45;5.75;;;;;;;15.81;nan;95678.88;5064485;28;20032;-84
2022/07/13 02:23:01;;;;;;;17.27;6.32;;;;;;;14.15;nan;95458.69;5063484;28;20114;-84
2022/07/13 02:25:27;;;;;;;19.05;5.07;;;;;;;15.37;nan;95625.84;5064895;28;20038;-84
2022/07/13 02:27:52;;;;;;;14.88;6.28;;;;;;;14.48;nan;95497.72;5081070;28;20075;-84
2022/07/13 02:30:18;;;;;;;21.63;6.25;;;;;;;14.86;nan;95569.78;5063380;28;20035;-84
2022/07/13 02:32:45;;;;;;;23.55;5.53;;;;;;;15.80;nan;95717.38;5063988;28;20078;-84
2022/07/13 02:35:12;;;;;;;18.17;6.70;;;;;;;15.65;nan;95701.59;5064421;28;20061;-84
2022/07/13 02:37:39;;;;;;;16.70;5.43;;;;;;;15.70;nan;95706.88;5062898;28;20662;-84
2022/07/13 02:40:05;;;;;;;24.10;5.97;;;;;;;15.44;nan;95658.34;5063104;28;20041;-85
2022/07/13 02:42:31;;;;;;;12.93;5.80;;;;;;;15.50;nan;95673.19;5060257;28;20040;-84
2022/07/13 02:44:56;;;;;;;12.68;6.03;;;;;;;14.27;nan;95515.06;5070319;28;20028;-85
2022/07/13 02:47:23;;;;;;;18.60;5.85;;;;;;;15.49;nan;95689.53;5064943;28;20044;-85
2022/07/13 02:49:49;;;;;;;13.23;6.13;;;;;;;15.00;nan;95608.81;5062414;28;20173;-84
2022/07/13 02:52:15;;;;;;;19.55;6.97;;;;;;;15.16;nan;95633.41;5061786;28;20138;-85
2022/07/13 02:54:41;;;;;;;16.95;6.63;;;;;;;15.03;nan;95616.22;5061645;28;20039;-85
2022/07/13 02:57:06;;;;;;;15.70;5.05;;;;;;;15.66;nan;95713.88;5063217;28;20149;-85
2022/07/13 02:59:33;;;;;;;13.73;5.30;;;;;;;15.66;nan;95692.50;5063357;28;20809;-85
2022/07/13 03:01:59;;;;;;;16.65;6.43;;;;;;;14.00;nan;95435.72;5059496;28;20106;-85
2022/07/13 03:04:25;;;;;;;21.70;5.13;;;;;;;15.45;nan;95690.13;5060073;28;20127;-85
2022/07/13 03:06:50;;;;;;;18.85;6.00;;;;;;;15.48;nan;95659.34;5061154;28;20032;-85
2022/07/13 03:09:15;;;;;;;19.63;6.07;;;;;;;15.54;nan;95678.81;5070712;28;20027;-85
2022/07/13 03:11:41;;;;;;;12.73;5.53;;;;;;;15.13;nan;95641.19;5081596;28;20031;-84
2022/07/13 03:14:06;;;;;;;13.68;5.70;;;;;;;15.44;nan;95687.75;5062909;28;20028;-85
2022/07/13 03:16:32;;;;;;;12.65;5.15;;;;;;;15.23;nan;95643.72;5063275;28;20494;-85
2022/07/13 03:18:59;;;;;;;20.15;4.60;;;;;;;14.74;nan;95545.38;5081298;28;20498;-84
2022/07/13 03:21:24;;;;;;;17.33;4.47;;;;;;;14.72;nan;95528.88;5060496;28;20589;-84
2022/07/13 03:23:50;;;;;;;13.05;4.07;;;;;;;15.66;nan;95682.59;5062575;28;20032;-84
2022/07/13 03:26:15;;;;;;;23.60;5.03;;;;;;;15.71;nan;95671.84;5059031;28;20455;-84
2022/07/13 03:28:41;;;;;;;12.00;4.25;;;;;;;15.56;nan;95690.81;5068076;28;20721;-85
2022/07/13 03:31:06;;;;;;;15.38;4.03;;;;;;;15.12;nan;95607.53;5060125;28;20474;-85
2022/07/13 03:33:31;;;;;;;10.00;3.92;;;;;;;15.39;nan;95651.22;5069093;28;20588;-85
2022/07/13 03:35:57;;;;;;;8.52;3.15;;;;;;;14.62;nan;95562.63;5062010;28;20119;-85
2022/07/13 03:38:22;;;;;;;11.40;3.78;;;;;;;14.98;nan;95604.81;5066293;28;20068;-85
2022/07/13 03:40:48;;;;;;;12.60;3.95;;;;;;;15.34;nan;95663.84;5080486;28;20036;-84
2022/07/13 03:43:13;;;;;;;15.57;4.50;;;;;;;14.92;nan;95574.75;5062037;28;20131;-85
2022/07/13 03:45:39;;;;;;;10.45;5.00;;;;;;;15.39;nan;95653.09;5062088;28;20185;-84
2022/07/13 03:48:05;;;;;;;10.98;3.83;;;;;;;15.17;nan;95610.94;5078262;28;20573;-84
2022/07/13 03:50:31;;;;;;;12.05;4.28;;;;;;;15.00;nan;95595.44;5062106;28;20157;-84
2022/07/13 03:52:56;;;;;;;11.68;4.50;;;;;;;15.30;nan;95646.81;5064467;28;20780;-84
2022/07/13 03:55:21;;;;;;;17.40;4.55;;;;;;;15.58;nan;95683.25;5061207;28;20051;-84
2022/07/13 03:57:47;;;;;;;12.73;4.13;;;;;;;15.40;nan;95655.47;5061239;28;20083;-84
2022/07/13 04:00:13;;;;;;;13.15;4.40;;;;;;;14.14;nan;95443.78;5074067;28;20079;-84
2022/07/13 04:02:38;;;;;;;9.30;3.92;;;;;;;15.57;nan;95686.22;5059383;28;20794;-84
2022/07/13 04:05:04;;;;;;;16.98;3.83;;;;;;;14.90;nan;95582.25;5063665;28;20036;-84
2022/07/13 04:07:30;;;;;;;12.77;3.22;;;;;;;15.20;nan;95628.25;5064333;28;20101;-84
2022/07/13 04:09:55;;;;;;;12.73;4.07;;;;;;;15.41;nan;95649.00;5061957;28;20032;-84
2022/07/13 04:12:21;;;;;;;10.65;3.85;;;;;;;15.77;nan;95707.28;5058871;28;20037;-85
2022/07/13 04:14:48;;;;;;;10.23;3.05;;;;;;;15.74;nan;95689.94;5075585;28;20048;-84
2022/07/13 04:17:13;;;;;;;9.50;3.72;;;;;;;15.49;nan;95689.53;5065150;28;20060;-84
2022/07/13 04:19:38;;;;;;;13.25;3.38;;;;;;;15.23;nan;95638.38;5062564;28;20044;-85
2022/07/13 04:22:04;;;;;;;13.57;3.45;;;;;;;15.57;nan;95676.31;5065443;28;20394;-85
2022/07/13 04:24:29;;;;;;;11.15;4.00;;;;;;;15.12;nan;95618.22;5064027;28;20796;-85
2022/07/13 04:26:55;;;;;;;8.68;3.22;;;;;;;15.64;nan;95679.41;5081713;28;21445;-86
2022/07/13 04:29:20;;;;;;;17.05;3.72;;;;;;;14.42;nan;95496.19;5067505;28;20047;-84
2022/07/13 04:31:46;;;;;;;12.90;3.45;;;;;;;15.85;nan;95705.84;5081686;28;20567;-84
2022/07/13 04:34:11;;;;;;;15.25;4.00;;;;;;;15.40;nan;95627.94;5070082;28;20089;-84
2022/07/13 04:36:37;;;;;;;9.07;3.75;;;;;;;15.79;nan;95718.50;5083680;28;20032;-84
2022/07/13 04:39:03;;;;;;;14.18;3.78;;;;;;;15.70;nan;95690.84;5061562;28;20067;-84
2022/07/13 04:41:28;;;;;;;11.98;4.40;;;;;;;16.06;nan;95723.13;5072753;28;20036;-84
2022/07/13 04:43:54;;;;;;;10.45;3.67;;;;;;;15.58;nan;95658.41;5075785;28;20438;-85
2022/07/13 04:46:19;;;;;;;11.85;4.47;;;;;;;15.53;nan;95629.06;5083449;28;20047;-85
2022/07/13 04:48:45;;;;;;;15.63;3.97;;;;;;;16.20;nan;95739.97;5063243;28;20036;-85
2022/07/13 04:51:10;;;;;;;13.75;3.88;;;;;;;16.28;nan;95741.97;5075197;28;20040;-85
2022/07/13 04:53:35;;;;;;;11.48;3.88;;;;;;;16.18;nan;95728.78;5059577;28;20062;-85
2022/07/13 04:56:01;;;;;;;18.15;4.57;;;;;;;15.74;nan;95631.13;5063985;28;20040;-85
2022/07/13 04:58:26;;;;;;;15.75;4.72;;;;;;;16.21;nan;95702.22;5059182;28;20056;-85
2022/07/13 05:00:52;;;;;;;15.05;3.63;;;;;;;15.78;nan;95626.00;5064291;28;20124;-85
2022/07/13 05:03:17;;;;;;;8.48;3.85;;;;;;;15.36;nan;95560.13;5063162;28;20032;-85
2022/07/13 05:05:43;;;;;;;16.48;4.65;;;;;;;16.19;nan;95668.81;5056368;28;20036;-86
2022/07/13 05:08:08;;;;;;;15.38;4.38;;;;;;;16.08;nan;95664.75;5063214;28;20036;-86
2022/07/13 05:10:34;;;;;;;8.88;3.90;;;;;;;16.65;nan;95740.25;5060261;28;20364;-86
2022/07/13 05:12:59;;;;;;;20.48;4.28;;;;;;;16.17;nan;95679.81;5063340;28;20565;-85
2022/07/13 05:15:25;;;;;;;13.50;3.50;;;;;;;15.88;nan;95636.47;5059389;28;20813;-85
2022/07/13 05:17:50;;;;;;;29.85;5.10;;;;;;;16.34;nan;95706.00;5060329;28;20119;-85
2022/07/13 05:20:16;;;;;;;9.00;3.65;;;;;;;16.05;nan;95646.63;5070366;28;20032;-85
2022/07/13 05:22:41;;;;;;;9.32;3.17;;;;;;;14.52;nan;95410.66;5078475;28;20037;-86
2022/07/13 05:25:07;;;;;;;13.25;4.03;;;;;;;15.87;nan;95658.97;5063579;28;20543;-86
2022/07/13 05:27:33;;;;;;;14.55;4.22;;;;;;;16.63;nan;95740.53;5059423;28;20129;-86
2022/07/13 05:29:58;;;;;;;13.90;4.85;;;;;;;15.60;nan;95624.16;5054974;28;20040;-84
2022/07/13 05:32:24;;;;;;;16.67;8.05;;;;;;;14.62;nan;95415.03;5059186;28;20129;-85
2022/07/13 05:34:49;;;;;;;17.08;8.52;;;;;;;16.55;nan;95727.84;5062355;28;20048;-84
2022/07/13 05:37:17;;;;;;;18.92;8.05;;;;;;;15.04;nan;95481.59;5081075;28;20065;-85
2022/07/13 05:39:44;;;;;;;14.88;6.50;;;;;;;16.02;nan;95656.00;5060830;28;20035;-85
2022/07/13 05:42:11;;;;;;;11.13;5.22;;;;;;;16.64;nan;95750.16;5048511;28;20518;-87
2022/07/13 05:44:36;;;;;;;10.75;3.42;;;;;;;16.51;nan;95741.00;5053391;28;20079;-86
2022/07/13 05:47:02;;;;;;;10.40;2.60;;;;;;;14.82;nan;95464.63;5064068;28;20118;-86
2022/07/13 05:49:28;;;;;;;14.27;3.08;;;;;;;16.00;nan;95654.75;5063340;28;20039;-85
2022/07/13 05:51:54;;;;;;;6.13;2.40;;;;;;;16.21;nan;95688.84;5063893;28;20913;-85
2022/07/13 05:54:19;;;;;;;6.70;2.08;;;;;;;15.25;nan;95540.81;5082673;28;20150;-85
2022/07/13 05:56:45;;;;;;;7.03;2.47;;;;;;;16.73;nan;95737.66;5064596;28;20066;-86
2022/07/13 05:59:13;;;;;;;5.75;2.30;;;;;;;16.59;nan;95704.72;5084206;28;20062;-85
2022/07/13 06:01:38;;;;;;;10.00;3.08;;;;;;;16.51;nan;95703.53;5059290;28;20028;-85
2022/07/13 06:04:04;;;;;;;5.80;2.17;;;;;;;16.52;nan;95682.91;5062577;28;20835;-86
2022/07/13 06:06:29;;;;;;;7.22;2.28;;;;;;;16.82;nan;95721.69;5059932;28;20040;-85
2022/07/13 06:08:55;;;;;;;10.90;2.60;;;;;;;16.08;nan;95613.94;5065881;28;20047;-86
2022/07/13 06:11:20;;;;;;;7.30;2.17;;;;;;;16.38;nan;95674.88;5063090;28;20044;-85
2022/07/13 06:13:46;;;;;;;3.80;1.83;;;;;;;16.41;nan;95655.53;5079533;28;20032;-85
2022/07/13 06:16:12;;;;;;;3.55;2.10;;;;;;;16.00;nan;95593.22;5063808;28;20140;-85
2022/07/13 06:18:38;;;;;;;6.57;2.28;;;;;;;16.05;nan;95580.53;5046249;28;20044;-85
2022/07/13 06:21:04;;;;;;;7.25;1.95;;;;;;;16.90;nan;95708.41;5061819;28;20027;-86
2022/07/13 06:23:29;;;;;;;4.15;2.08;;;;;;;15.72;nan;95522.88;5061613;28;20096;-86
2022/07/13 06:25:55;;;;;;;5.80;2.13;;;;;;;13.21;nan;95135.50;5060816;28;20032;-86
2022/07/13 06:28:20;;;;;;;6.85;2.08;;;;;;;16.73;nan;95675.28;5047482;28;20032;-85
2022/07/13 06:30:45;;;;;;;7.72;1.80;;;;;;;16.07;nan;95561.50;5078480;28;20619;-85
2022/07/13 06:33:11;;;;;;;7.30;1.70;;;;;;;17.13;nan;95713.81;5056118;28;20063;-86
2022/07/13 06:35:36;;;;;;;10.93;1.90;;;;;;;17.32;nan;95725.16;5050017;28;20035;-85
2022/07/13 06:38:02;;;;;;;7.50;2.00;;;;;;;17.05;nan;95667.06;5063061;28;20036;-86
2022/07/13 06:40:28;;;;;;;6.68;1.70;;;;;;;17.00;nan;95650.34;5062557;28;20038;-85
2022/07/13 06:42:54;;;;;;;8.05;2.22;;;;;;;17.56;nan;95709.59;5061640;28;20100;-86
2022/07/13 06:45:21;;;;;;;22.65;2.53;;;;;;;15.62;nan;95392.09;5091426;28;20100;-85
2022/07/13 06:47:46;;;;;;;4.60;1.90;;;;;;;16.81;nan;95568.22;5069527;28;20024;-86
2022/07/13 06:50:12;;;;;;;9.45;1.95;;;;;;;17.47;nan;95660.47;5062712;28;20113;-85
2022/07/13 06:52:37;;;;;;;7.45;2.45;;;;;;;17.95;nan;95716.97;5062848;28;20032;-85
2022/07/13 06:55:04;;;;;;;13.65;1.98;;;;;;;17.63;nan;95660.91;5082250;28;20032;-85
2022/07/13 06:57:30;;;;;;;8.25;2.08;;;;;;;17.18;nan;95615.31;5062572;28;20036;-85
2022/07/13 06:59:55;;;;;;;5.82;1.85;;;;;;;17.40;nan;95616.41;5074391;28;20052;-85
2022/07/13 07:02:21;;;;;;;11.77;1.92;;;;;;;17.76;nan;95684.22;5062825;28;20083;-85
2022/07/13 07:04:46;;;;;;;9.38;2.47;;;;;;;17.76;nan;95664.63;5055901;28;20020;-85
2022/07/13 07:07:12;;;;;;;9.90;2.25;;;;;;;15.72;nan;95312.44;5076380;28;20043;-85
2022/07/13 07:09:37;;;;;;;9.60;2.13;;;;;;;17.56;nan;95617.63;5077184;28;20032;-85
2022/07/13 07:12:03;;;;;;;6.50;1.85;;;;;;;18.07;nan;95671.59;5058129;28;20052;-85
2022/07/13 07:14:32;;;;;;;9.82;2.25;;;;;;;17.77;nan;95617.94;5063192;28;20062;-85
2022/07/13 07:16:58;;;;;;;6.03;1.80;;;;;;;17.16;nan;95506.84;5061698;28;20615;-85
2022/07/13 07:19:24;;;;;;;1.98;1.33;;;;;;;18.18;nan;95695.47;5058682;28;20043;-85
2022/07/13 07:21:49;;;;;;;4.65;2.20;;;;;;;17.59;nan;95574.91;5062357;28;20035;-85
2022/07/13 07:24:15;;;;;;;6.97;1.63;;;;;;;18.31;nan;95665.06;5056815;28;20035;-85
2022/07/13 07:26:40;;;;;;;7.95;1.80;;;;;;;17.97;nan;95625.44;5062694;28;20054;-85
2022/07/13 07:29:06;;;;;;;8.10;1.60;;;;;;;18.33;nan;95681.66;5061737;28;20032;-85
2022/07/13 07:31:31;;;;;;;9.68;1.90;;;;;;;18.01;nan;95613.78;5062015;28;20415;-85
2022/07/13 07:33:56;;;;;;;4.45;1.73;;;;;;;18.18;nan;95650.63;5051322;28;20037;-85
2022/07/13 07:36:22;;;;;;;12.50;1.85;;;;;;;17.54;nan;95537.50;5060056;28;20032;-85
2022/07/13 07:38:47;;;;;;;9.38;1.65;;;;;;;18.50;nan;95687.09;5079788;28;20086;-85
2022/07/13 07:41:13;;;;;;;12.82;2.35;;;;;;;18.51;nan;95670.66;5061517;28;20434;-86
2022/07/13 07:43:38;;;;;;;8.98;1.50;;;;;;;18.31;nan;95609.47;5060669;28;20028;-86
2022/07/13 07:46:04;;;;;;;6.07;1.42;;;;;;;18.97;nan;95714.28;5067019;28;20028;-86
2022/07/13 07:48:30;;;;;;;6.78;1.52;;;;;;;18.57;nan;95641.00;5081361;28;20390;-86
2022/07/13 07:50:55;;;;;;;16.83;2.08;;;;;;;18.86;nan;95686.91;5065984;28;20032;-85
2022/07/13 07:53:21;;;;;;;7.72;1.77;;;;;;;18.21;nan;95564.13;5066010;28;20036;-86
2022/07/13 07:55:46;;;;;;;13.20;1.73;;;;;;;19.13;nan;95696.59;5076805;28;20036;-86
2022/07/13 07:58:13;;;;;;;8.80;1.63;;;;;;;18.94;nan;95653.06;5053518;28;20045;-85
2022/07/13 08:00:40;;;;;;;7.43;1.90;;;;;;;18.93;nan;95654.19;5052374;28;20040;-86
2022/07/13 08:03:06;;;;;;;7.72;1.30;;;;;;;17.58;nan;95430.38;5062073;28;20082;-86
2022/07/13 08:05:31;;;;;;;3.00;1.20;;;;;;;18.49;nan;95580.75;5047937;28;20029;-85
2022/07/13 08:07:57;;;;;;;8.15;1.33;;;;;;;18.94;nan;95643.13;5059415;28;20033;-86
2022/07/13 08:10:23;;;;;;;3.25;1.10;;;;;;;18.48;nan;95566.53;5045245;28;20029;-86
2022/07/13 08:12:48;;;;;;;8.85;2.05;;;;;;;17.28;nan;95370.38;5067306;28;20348;-86
2022/07/13 08:15:13;;;;;;;5.50;1.50;;;;;;;17.30;nan;95371.66;5050492;28;20036;-86
2022/07/13 08:17:39;;;;;;;7.70;1.38;;;;;;;18.60;nan;95559.81;5061965;28;20032;-86
2022/07/13 08:20:08;;;;;;;7.60;1.92;;;;;;;19.08;nan;95634.91;5057740;28;20048;-86
2022/07/13 08:22:34;;;;;;;8.73;1.75;;;;;;;19.28;nan;95664.66;5056619;28;20111;-85
2022/07/13 08:24:59;;;;;;;4.82;1.30;;;;;;;19.34;nan;95656.41;5063007;28;20131;-85
2022/07/13 08:27:26;;;;;;;6.60;1.40;;;;;;;19.62;nan;95696.16;5057437;28;20039;-85
2022/07/13 08:29:52;;;;;;;7.45;1.90;;;;;;;19.73;nan;95685.88;5062313;28;20288;-85
2022/07/13 08:32:17;;;;;;;7.50;1.90;;;;;;;19.71;nan;95671.94;5062671;28;20040;-85
2022/07/13 08:40:11;;;;;;;7.60;1.48;;;;;;;19.48;nan;95614.03;5052178;28;20470;-85
2022/07/13 08:42:38;;;;;;;9.48;1.50;;;;;;;19.98;nan;95693.09;5052508;28;20353;-85
2022/07/13 08:45:04;;;;;;;5.25;1.52;;;;;;;19.99;nan;95683.91;5052206;28;20562;-86
2022/07/13 08:47:31;;;;;;;8.98;1.85;;;;;;;20.04;nan;95688.34;5056094;28;20074;-86
2022/07/13 08:50:04;;;;;;;7.32;1.40;;;;;;;19.64;nan;95620.50;5056731;28;20471;-85
2022/07/13 08:52:30;;;;;;;2.97;1.23;;;;;;;20.14;nan;95677.19;5051579;28;20029;-85
2022/07/13 08:54:58;;;;;;;4.05;1.30;;;;;;;20.13;nan;95653.31;5055803;28;20155;-85
2022/07/13 08:57:24;;;;;;;3.47;1.25;;;;;;;20.28;nan;95655.47;5063035;28;20068;-85
2022/07/13 08:59:51;;;;;;;3.95;1.13;;;;;;;20.56;nan;95693.56;5055960;28;20046;-85
2022/07/13 09:02:17;;;;;;;5.70;1.27;;;;;;;20.48;nan;95681.72;5067162;28;20043;-85
2022/07/13 09:04:44;;;;;;;3.58;1.88;;;;;;;20.08;nan;95611.19;5054336;28;20037;-85
2022/07/13 09:07:11;;;;;;;5.30;1.20;;;;;;;20.34;nan;95630.75;5048986;28;20043;-85
2022/07/13 09:09:38;;;;;;;4.63;1.20;;;;;;;20.31;nan;95612.50;5060963;28;20040;-85
2022/07/13 09:12:24;;;;;;;5.20;1.08;;;;;;;20.94;nan;95674.66;5077995;28;20040;-85
2022/07/13 09:15:07;;;;;;;5.47;1.42;;;;;;;21.14;nan;95703.53;5059733;28;20542;-85
2022/07/13 09:17:33;;;;;;;5.03;1.60;;;;;;;21.10;nan;95697.22;5078125;28;20150;-85
2022/07/13 09:20:15;;;;;;;3.22;1.70;;;;;;;21.19;nan;95689.91;5062054;28;20163;-85
2022/07/13 09:22:49;;;;;;;6.65;1.30;;;;;;;21.32;nan;95688.84;5052492;28;20518;-85
2022/07/13 09:25:34;;;;;;;10.50;1.83;;;;;;;20.53;nan;95565.66;5074243;28;20024;-85
2022/07/13 09:28:03;;;;;;;6.15;1.67;;;;;;;21.51;nan;95691.09;5058980;28;20516;-85
2022/07/13 09:30:29;;;;;;;9.90;1.52;;;;;;;21.24;nan;95686.22;5063352;28;20426;-85
2022/07/13 09:32:56;;;;;;;5.40;1.10;;;;;;;20.90;nan;95644.09;5050192;28;20036;-85
2022/07/13 09:35:42;;;;;;;6.45;1.10;;;;;;;21.28;nan;95657.47;5078092;28;20035;-85
2022/07/13 09:38:07;;;;;;;7.93;1.80;;;;;;;21.21;nan;95604.03;5083236;28;20466;-85
2022/07/13 09:40:33;;;;;;;4.18;1.58;;;;;;;21.30;nan;95629.03;5053747;28;20040;-85
2022/07/13 09:48:26;;;;;;;3.42;0.80;;;;;;;21.10;nan;95560.50;5069625;28;20047;-86
2022/07/13 09:50:57;;;;;;;7.13;1.10;;;;;;;21.15;nan;95595.34;5068991;28;20044;-85
2022/07/13 09:53:28;;;;;;;4.88;1.20;;;;;;;21.66;nan;95674.28;5059748;28;20102;-85
2022/07/13 09:55:54;;;;;;;5.13;1.23;;;;;;;21.60;nan;95643.22;5062093;28;20043;-86
2022/07/13 09:58:28;;;;;;;2.15;1.20;;;;;;;21.57;nan;95503.56;5057142;28;20660;-85
2022/07/13 10:00:55;;;;;;;6.15;1.17;;;;;;;23.51;nan;95666.75;5078836;28;20255;-86
2022/07/13 10:03:22;;;;;;;6.32;1.00;;;;;;;24.54;nan;95667.59;5070953;28;20168;-85
2022/07/13 10:05:51;;;;;;;4.15;1.02;;;;;;;23.70;nan;95477.38;5043233;28;20087;-85
2022/07/13 10:08:17;;;;;;;2.00;1.00;;;;;;;23.23;nan;95401.53;5080534;28;20040;-86
2022/07/13 10:10:44;;;;;;;3.88;1.20;;;;;;;23.89;nan;95653.50;5058848;28;20498;-85
2022/07/13 10:13:11;;;;;;;4.22;1.23;;;;;;;23.42;nan;95620.88;5061875;28;20072;-85
2022/07/13 10:15:37;;;;;;;3.08;1.40;;;;;;;23.52;nan;95563.53;5061548;28;20047;-84
2022/07/13 10:18:05;;;;;;;3.38;1.00;;;;;;;24.60;nan;95582.91;5062924;28;20040;-85
2022/07/13 10:20:33;;;;;;;6.03;1.05;;;;;;;25.33;nan;95570.50;5061838;28;20032;-85
2022/07/13 10:22:59;;;;;;;4.10;1.00;;;;;;;26.01;nan;95551.63;5055176;28;20494;-85
2022/07/13 10:25:40;;;;;;;4.05;1.05;;;;;;;25.78;nan;95522.91;5065137;28;20042;-86
2022/07/13 10:28:05;;;;;;;;;;;;;;;26.13;nan;95649.28;5080662;28;20044;-86
2022/07/13 10:30:31;;;;;;;3.15;1.20;;;;;;;25.63;nan;95631.25;5061148;28;20439;-86
2022/07/13 10:33:17;;;;;;;3.22;0.70;;;;;;;25.12;nan;95616.22;5057170;28;20031;-86
2022/07/13 10:35:51;;;;;;;5.75;1.17;;;;;;;25.36;nan;95622.19;5078572;28;20127;-86
2022/07/13 10:38:20;;;;;;;4.88;1.10;;;;;;;25.36;nan;95643.91;5079997;28;20659;-85
2022/07/13 10:40:46;;;;;;;4.53;0.95;;;;;;;25.74;nan;95647.78;5058218;28;20039;-86
2022/07/13 10:43:21;;;;;;;3.08;0.88;;;;;;;25.74;nan;95607.03;5071953;28;20046;-86
2022/07/13 10:45:55;;;;;;;2.33;1.00;;;;;;;25.73;nan;95617.09;5045876;28;20123;-86
2022/07/13 10:48:24;;;;;;;7.72;2.35;;;;;;;26.19;nan;95654.41;5078732;28;20541;-85
2022/07/13 10:50:57;;;;;;;4.18;1.40;;;;;;;26.13;nan;95645.78;5080771;28;20196;-85
2022/07/13 10:53:45;;;;;;;5.15;1.00;;;;;;;26.37;nan;95644.69;5070134;28;20065;-86
2022/07/13 10:56:18;;;;;;;0.68;0.57;;;;;;;26.29;nan;95583.97;5076756;28;20044;-85
2022/07/13 10:58:49;;;;;;;5.18;1.55;;;;;;;26.87;nan;95624.47;5067691;28;20680;-85
2022/07/13 11:01:37;;;;;;;3.03;1.00;;;;;;;27.22;nan;95630.47;5076259;28;20128;-86
2022/07/13 11:04:05;;;;;;;4.32;0.82;;;;;;;26.59;nan;95610.44;5048692;28;20077;-85
2022/07/13 11:06:31;;;;;;;4.25;1.08;;;;;;;26.03;nan;95643.66;5070042;28;20030;-85
2022/07/13 11:09:14;;;;;;;1.25;0.93;;;;;;;25.35;nan;95639.59;5062610;28;20023;-85
2022/07/13 11:11:48;;;;;;;7.35;1.00;;;;;;;25.82;nan;95602.50;5077178;28;20035;-85
2022/07/13 11:14:35;;;;;;;2.97;0.85;;;;;;;26.18;nan;95622.94;5053334;28;20029;-85
2022/07/13 11:17:12;;;;;;;1.58;1.20;;;;;;;25.52;nan;95553.44;5054988;28;20222;-85
2022/07/13 11:19:56;;;;;;;10.52;1.48;;;;;;;25.47;nan;95619.69;5080845;28;20067;-86
2022/07/13 11:22:23;;;;;;;2.63;1.00;;;;;;;25.16;nan;95557.38;5046957;28;20079;-85
2022/07/13 11:25:16;;;;;;;2.08;1.02;;;;;;;25.98;nan;95595.84;5062569;28;20107;-85
2022/07/13 11:28:12;;;;;;;6.07;1.30;;;;;;;26.68;nan;95584.56;5063872;28;20043;-85
2022/07/13 11:30:47;;;;;;;8.55;1.15;;;;;;;26.80;nan;95621.66;5072304;28;20066;-85
2022/07/13 11:33:15;;;;;;;9.82;1.17;;;;;;;26.91;nan;95610.97;5066631;28;20257;-85
2022/07/13 11:35:46;;;;;;;3.13;0.80;;;;;;;27.30;nan;95615.00;5049402;28;20879;-85
2022/07/13 11:38:14;;;;;;;2.50;0.68;;;;;;;27.31;nan;95553.94;5062774;28;20047;-86
2022/07/13 11:40:40;;;;;;;1.90;0.93;;;;;;;27.16;nan;95538.56;5064920;28;20113;-86
2022/07/13 11:43:08;;;;;;;7.80;1.67;;;;;;;27.40;nan;95587.09;5063008;28;20518;-86
2022/07/13 11:45:34;;;;;;;2.28;1.17;;;;;;;27.27;nan;95523.16;5065989;28;20123;-85
2022/07/13 11:48:04;;;;;;;6.25;1.35;;;;;;;27.05;nan;95560.22;5084043;28;20040;-86
2022/07/13 11:50:48;;;;;;;2.78;1.23;;;;;;;26.66;nan;95575.97;5066161;28;20150;-85
2022/07/13 11:53:26;;;;;;;7.10;1.00;;;;;;;25.75;nan;95527.91;5061609;28;20059;-86
2022/07/13 11:55:54;;;;;;;3.25;1.05;;;;;;;25.58;nan;95449.59;5054876;28;20089;-86
2022/07/13 11:58:24;;;;;;;7.30;1.30;;;;;;;26.58;nan;95578.97;5053495;28;20052;-86